Portada
METAR-TAF:

METAR-TAF

Aeroports :

Agra, Índia

latitud: 27-09-27N, longitud: 077-57-39E, altitud: 168 m

METAR: manca

Hora: 05:31 (00:01 UTC)

Pronòstic

L'informe es va fer fa 8 hores i 31 minuts, a les 15:30 UTC
Pronòstic vàlid del 21 a les 18 UTC al 22 a les 06 UTC
Vent 2 kt amb direcció variable
Visibilitat: 0800 m
Núvols disperses a una alçada de 25000 ft
boira
Evolucionant progressivament
l' 22 a les 05 UTC al 22 a les 06 UTC
Visibilitat: 1500 m
calitja

TAF: VIAG 211530Z 2118/2206 VRB02KT 0800 FG SCT250 BECMG 2205/2206 1500 HZ

Observacions i pronòstics meteorològics de més de 4000 aeroports (METAR i TAF).

Les estacions disponibles són els punts grocs i vermells al mapa.

Posi el ratolí al punt desitjat per veure el nom de l'estació.

Feu clic per veure les observacions i els pronòstics meteorològics.

Per canviar el mapa: feu clic els botons verds amb una creu de color negre per apropar; al botó verd amb un guió per allunyar la imatge; o en les fletxes verdes per a mapes adjacents.


METAR-TAF: